createdAt,value
2022-11-07T00:00:56.490Z,836.53
2022-11-07T00:01:56.618Z,837.29
2022-11-07T00:02:56.555Z,837.66
2022-11-07T00:03:56.489Z,838
2022-11-07T00:04:59.594Z,838.38
2022-11-07T00:05:56.489Z,839.37
2022-11-07T00:06:56.493Z,839.69
2022-11-07T00:07:56.491Z,840.22
2022-11-07T00:08:56.495Z,840.76
2022-11-07T00:09:56.498Z,841.1
2022-11-07T00:10:56.503Z,841.64
2022-11-07T00:11:56.499Z,842.23
2022-11-07T00:12:56.499Z,842.93
2022-11-07T00:13:56.509Z,843.64
2022-11-07T00:14:56.502Z,844.05
2022-11-07T00:15:57.629Z,844.45
2022-11-07T00:16:56.512Z,844.97
2022-11-07T00:17:56.531Z,845.66
2022-11-07T00:18:56.510Z,845.76
2022-11-07T00:19:56.507Z,845.61
2022-11-07T00:20:56.511Z,845.99
2022-11-07T00:21:56.513Z,845.85
2022-11-07T00:22:56.537Z,846.56
2022-11-07T00:23:56.519Z,846.97
2022-11-07T00:24:56.528Z,846.99
2022-11-07T00:25:56.517Z,847.42
2022-11-07T00:26:59.433Z,847.18
2022-11-07T00:27:56.519Z,847.28
2022-11-07T00:28:56.520Z,847.29
2022-11-07T00:29:56.525Z,847.79
2022-11-07T00:30:56.526Z,847.99
2022-11-07T00:31:56.524Z,848.42
2022-11-07T00:33:00.123Z,848.93
2022-11-07T00:33:56.557Z,849.69
2022-11-07T00:34:56.532Z,849.79
2022-11-07T00:35:56.535Z,850.15
2022-11-07T00:36:56.537Z,851.22
2022-11-07T00:37:59.551Z,851.69
2022-11-07T00:38:56.536Z,851.98
2022-11-07T00:39:56.537Z,852.82
2022-11-07T00:40:56.542Z,853.37
2022-11-07T00:41:56.540Z,854
2022-11-07T00:42:56.545Z,854.41
2022-11-07T00:43:56.546Z,854.97
2022-11-07T00:44:56.543Z,855.29
2022-11-07T00:45:56.549Z,855.6
2022-11-07T00:46:56.553Z,856.58
2022-11-07T00:47:56.551Z,857.14
2022-11-07T00:48:56.551Z,857.5
2022-11-07T00:49:56.583Z,858.01
2022-11-07T00:50:56.555Z,858.56
2022-11-07T00:51:56.558Z,858.86
2022-11-07T00:52:56.557Z,859.23
2022-11-07T00:53:56.567Z,859.79
2022-11-07T00:54:56.560Z,860.21
2022-11-07T00:55:56.562Z,860.48
2022-11-07T00:56:56.567Z,860.91
2022-11-07T00:57:56.621Z,861.15
2022-11-07T00:58:56.568Z,861.43
2022-11-07T00:59:56.572Z,861.56
2022-11-07T01:00:56.572Z,862.04
2022-11-07T01:01:56.670Z,862.29
2022-11-07T01:02:56.646Z,862.59
2022-11-07T01:03:56.575Z,862.59
2022-11-07T01:04:56.576Z,863
2022-11-07T01:05:56.701Z,863.28
2022-11-07T01:06:56.583Z,863.49
2022-11-07T01:07:56.579Z,863.87
2022-11-07T01:08:56.613Z,864.17
2022-11-07T01:09:56.580Z,864.3
2022-11-07T01:10:56.584Z,864.89
2022-11-07T01:11:56.587Z,865.45
2022-11-07T01:12:56.593Z,865.52
2022-11-07T01:13:56.593Z,865.86
2022-11-07T01:14:56.591Z,866.61
2022-11-07T01:15:56.590Z,866.54
2022-11-07T01:16:56.592Z,867.34
2022-11-07T01:17:56.598Z,867.45
2022-11-07T01:18:56.633Z,867.76
2022-11-07T01:19:56.598Z,868.49
2022-11-07T01:20:56.601Z,868.26
2022-11-07T01:21:56.709Z,868.81
2022-11-07T01:22:56.617Z,868.87
2022-11-07T01:23:56.609Z,869.09
2022-11-07T01:24:56.604Z,869.87
2022-11-07T01:25:56.608Z,870.13
2022-11-07T01:26:56.612Z,870.89
2022-11-07T01:27:56.612Z,871.24
2022-11-07T01:28:56.655Z,871.7
2022-11-07T01:29:56.609Z,872.2
2022-11-07T01:30:56.615Z,872.48
2022-11-07T01:31:56.619Z,873.03
2022-11-07T01:32:56.620Z,873.04
2022-11-07T01:33:56.619Z,873.6
2022-11-07T01:34:56.620Z,873.72
2022-11-07T01:35:56.620Z,873.77
2022-11-07T01:36:56.620Z,873.85
2022-11-07T01:37:56.657Z,873.79
2022-11-07T01:38:56.626Z,874.02
2022-11-07T01:39:56.627Z,873.87
2022-11-07T01:40:56.628Z,874.13
2022-11-07T01:41:56.631Z,874.41
2022-11-07T01:42:56.632Z,874.87
2022-11-07T01:43:56.647Z,874.86
2022-11-07T01:44:56.638Z,875.3
2022-11-07T01:45:56.636Z,875.27
2022-11-07T01:46:56.639Z,875.62
2022-11-07T01:47:56.640Z,876.27
2022-11-07T01:48:56.638Z,876.44
2022-11-07T01:49:56.643Z,876.36
2022-11-07T01:50:56.644Z,876.78
2022-11-07T01:51:56.642Z,877.31
2022-11-07T01:52:56.687Z,876.93
2022-11-07T01:53:56.673Z,878.08
2022-11-07T01:54:56.648Z,877.79
2022-11-07T01:55:56.651Z,878.61
2022-11-07T01:56:56.672Z,878.55
2022-11-07T01:57:56.656Z,878.94
2022-11-07T01:58:56.660Z,879.16
2022-11-07T01:59:56.660Z,879.09
2022-11-07T02:00:56.656Z,879.53
2022-11-07T02:01:56.766Z,879.29
2022-11-07T02:02:56.902Z,878.92
2022-11-07T02:03:56.665Z,879.52
2022-11-07T02:04:56.665Z,879.21
2022-11-07T02:05:56.669Z,879.77
2022-11-07T02:06:56.666Z,879.69
2022-11-07T02:07:56.668Z,880.11
2022-11-07T02:08:56.669Z,879.76
2022-11-07T02:09:56.694Z,880
2022-11-07T02:10:56.673Z,880.88
2022-11-07T02:11:56.674Z,880.5
2022-11-07T02:12:56.677Z,881.12
2022-11-07T02:13:56.679Z,881.7
2022-11-07T02:14:56.681Z,881.82
2022-11-07T02:15:56.716Z,881.72
2022-11-07T02:16:56.683Z,882.53
2022-11-07T02:17:56.683Z,882.62
2022-11-07T02:18:56.683Z,882.77
2022-11-07T02:19:56.721Z,883.21
2022-11-07T02:20:56.690Z,883.85
2022-11-07T02:21:56.734Z,884.19
2022-11-07T02:22:56.694Z,884.71
2022-11-07T02:23:56.696Z,885.05
2022-11-07T02:24:56.694Z,885.46
2022-11-07T02:25:56.718Z,885.75
2022-11-07T02:26:56.721Z,886.47
2022-11-07T02:27:56.699Z,886.64
2022-11-07T02:28:56.706Z,887.08
2022-11-07T02:29:56.703Z,887.08
2022-11-07T02:30:56.703Z,887.63
2022-11-07T02:31:57.594Z,887.97
2022-11-07T02:32:56.707Z,887.75
2022-11-07T02:33:56.712Z,888.41
2022-11-07T02:34:56.716Z,888.35
2022-11-07T02:35:56.712Z,888.76
2022-11-07T02:36:56.715Z,888.91
2022-11-07T02:37:56.720Z,889.14
2022-11-07T02:38:56.717Z,889.67
2022-11-07T02:39:56.717Z,889.43
2022-11-07T02:40:56.719Z,890.05
2022-11-07T02:41:56.744Z,890.14
2022-11-07T02:42:57.798Z,890.44
2022-11-07T02:43:56.732Z,890.85
2022-11-07T02:44:56.728Z,891.23
2022-11-07T02:45:56.725Z,891.44
2022-11-07T02:46:56.727Z,892.14
2022-11-07T02:47:56.730Z,892.25
2022-11-07T02:48:56.729Z,892.59
2022-11-07T02:49:56.736Z,893.07
2022-11-07T02:50:56.734Z,892.86
2022-11-07T02:51:56.735Z,893.37
2022-11-07T02:52:56.737Z,893.38
2022-11-07T02:53:59.850Z,893.74
2022-11-07T02:54:56.739Z,893.83
2022-11-07T02:55:56.739Z,894.26
2022-11-07T02:56:56.745Z,894.05
2022-11-07T02:57:56.768Z,894.41
2022-11-07T02:58:56.748Z,894.36
2022-11-07T02:59:56.749Z,894.64
2022-11-07T03:00:56.750Z,895.18
2022-11-07T03:01:56.876Z,894.95
2022-11-07T03:02:56.808Z,894.94
2022-11-07T03:03:56.755Z,895.24
2022-11-07T03:04:59.833Z,895.64
2022-11-07T03:05:56.757Z,895.7
2022-11-07T03:06:56.775Z,896.19
2022-11-07T03:07:56.760Z,896.31
2022-11-07T03:08:56.763Z,896.38
2022-11-07T03:09:56.763Z,896.65
2022-11-07T03:10:56.764Z,896.94
2022-11-07T03:11:56.766Z,897.06
2022-11-07T03:12:56.766Z,896.95
2022-11-07T03:13:56.795Z,897.28
2022-11-07T03:14:56.938Z,897.59
2022-11-07T03:15:56.772Z,897.06
2022-11-07T03:16:56.779Z,897.28
2022-11-07T03:17:56.774Z,897.93
2022-11-07T03:18:56.780Z,898.45
2022-11-07T03:19:56.777Z,898.64
2022-11-07T03:20:56.780Z,898.91
2022-11-07T03:21:56.782Z,899.44
2022-11-07T03:22:56.781Z,899.62
2022-11-07T03:23:56.788Z,899.81
2022-11-07T03:24:56.896Z,900.17
2022-11-07T03:25:56.787Z,899.93
2022-11-07T03:26:56.789Z,900.18
2022-11-07T03:27:56.791Z,899.83
2022-11-07T03:28:56.793Z,900.15
2022-11-07T03:29:56.819Z,900.2
2022-11-07T03:30:56.792Z,900.82
2022-11-07T03:31:56.797Z,900.32
2022-11-07T03:32:56.796Z,900.88
2022-11-07T03:33:56.803Z,900.84
2022-11-07T03:34:56.798Z,901.26
2022-11-07T03:35:56.840Z,901.62
2022-11-07T03:36:56.806Z,902
2022-11-07T03:37:56.809Z,902.32
2022-11-07T03:38:56.806Z,902.78
2022-11-07T03:39:56.813Z,903.12
2022-11-07T03:40:56.809Z,903.52
2022-11-07T03:41:56.811Z,903.89
2022-11-07T03:42:56.814Z,904.41
2022-11-07T03:43:56.816Z,903.98
2022-11-07T03:44:56.818Z,904.89
2022-11-07T03:45:56.932Z,905.24
2022-11-07T03:46:56.820Z,905.85
2022-11-07T03:47:56.818Z,906.27
2022-11-07T03:48:56.821Z,907.1
2022-11-07T03:49:56.830Z,907.34
2022-11-07T03:50:56.826Z,907.67
2022-11-07T03:51:56.824Z,908.57
2022-11-07T03:52:56.828Z,909.16
2022-11-07T03:53:56.827Z,910.04
2022-11-07T03:54:56.831Z,910.38
2022-11-07T03:55:56.830Z,910.87
2022-11-07T03:56:56.840Z,911.28
2022-11-07T03:57:56.841Z,911.87
2022-11-07T03:58:56.838Z,912.74
2022-11-07T03:59:56.843Z,913.19
2022-11-07T04:00:56.840Z,913.55
2022-11-07T04:01:57.002Z,913.93
2022-11-07T04:02:57.051Z,914.37
2022-11-07T04:03:56.850Z,914.4
2022-11-07T04:04:56.846Z,915.05
2022-11-07T04:05:56.847Z,915.3
2022-11-07T04:06:56.854Z,916.06
2022-11-07T04:07:56.851Z,916.84
2022-11-07T04:08:56.853Z,917.02
2022-11-07T04:09:56.853Z,917.34
2022-11-07T04:10:56.877Z,918.35
2022-11-07T04:11:56.857Z,918.55
2022-11-07T04:12:56.863Z,919.16
2022-11-07T04:13:56.863Z,919.63
2022-11-07T04:14:56.859Z,920
2022-11-07T04:15:56.865Z,921.15
2022-11-07T04:16:56.874Z,921.99
2022-11-07T04:17:56.895Z,922.06
2022-11-07T04:18:56.866Z,922.92
2022-11-07T04:19:56.879Z,923.59
2022-11-07T04:20:56.874Z,924.48
2022-11-07T04:21:56.878Z,924.84
2022-11-07T04:22:56.881Z,925.39
2022-11-07T04:23:56.876Z,925.83
2022-11-07T04:24:56.879Z,926.64
2022-11-07T04:25:56.881Z,927.23
2022-11-07T04:26:56.886Z,928.02
2022-11-07T04:27:56.885Z,928.75
2022-11-07T04:28:56.882Z,928.93
2022-11-07T04:29:56.940Z,929.2
2022-11-07T04:30:56.886Z,929.58
2022-11-07T04:31:56.887Z,929.94
2022-11-07T04:32:56.892Z,930.32
2022-11-07T04:33:56.913Z,930.67
2022-11-07T04:34:56.893Z,930.94
2022-11-07T04:35:56.894Z,930.7
2022-11-07T04:36:56.898Z,931.33
2022-11-07T04:37:56.902Z,930.91
2022-11-07T04:38:56.901Z,931.16
2022-11-07T04:39:56.901Z,931.33
2022-11-07T04:40:56.916Z,931.1
2022-11-07T04:41:56.906Z,930.75
2022-11-07T04:42:56.913Z,930.65
2022-11-07T04:43:56.905Z,930.18
2022-11-07T04:44:56.912Z,929.32
2022-11-07T04:45:56.912Z,928.85
2022-11-07T04:46:56.919Z,927.84
2022-11-07T04:47:56.932Z,927.57
2022-11-07T04:48:56.918Z,927.01
2022-11-07T04:49:56.946Z,926.36
2022-11-07T04:50:56.938Z,925.41
2022-11-07T04:51:56.924Z,924.11
2022-11-07T04:52:56.926Z,922.7
2022-11-07T04:53:56.920Z,921.76
2022-11-07T04:54:56.944Z,921.09
2022-11-07T04:55:56.958Z,920.4
2022-11-07T04:56:56.934Z,919.64
2022-11-07T04:57:56.928Z,919.22
2022-11-07T04:59:00.108Z,918.89
2022-11-07T04:59:56.933Z,919.47
2022-11-07T05:00:56.936Z,919.09
2022-11-07T05:01:57.083Z,919.14
2022-11-07T05:02:57.074Z,919.19
2022-11-07T05:03:56.936Z,919.4
2022-11-07T05:04:56.945Z,919.16
2022-11-07T05:05:56.984Z,918.86
2022-11-07T05:06:56.947Z,918.49
2022-11-07T05:07:56.956Z,918.41
2022-11-07T05:08:56.945Z,917.71
2022-11-07T05:09:59.849Z,917.25
2022-11-07T05:10:56.945Z,915.89
2022-11-07T05:11:56.949Z,915.35
2022-11-07T05:12:56.953Z,914.34
2022-11-07T05:13:56.955Z,913.81
2022-11-07T05:14:56.956Z,913.28
2022-11-07T05:15:56.959Z,912.89
2022-11-07T05:16:56.964Z,911.84
2022-11-07T05:17:56.961Z,911.31
2022-11-07T05:18:56.971Z,910.62
2022-11-07T05:19:56.964Z,909.91
2022-11-07T05:21:00.006Z,908.8
2022-11-07T05:21:56.974Z,908.32
2022-11-07T05:22:57.263Z,907.35
2022-11-07T05:23:56.968Z,906.88
2022-11-07T05:24:56.976Z,906.16
2022-11-07T05:25:56.973Z,905.97
2022-11-07T05:26:56.977Z,905.56
2022-11-07T05:27:56.977Z,905.85
2022-11-07T05:28:56.976Z,905.89
2022-11-07T05:29:56.979Z,905.98
2022-11-07T05:30:56.979Z,905.39
2022-11-07T05:32:02.973Z,906.03
2022-11-07T05:32:56.981Z,905.88
2022-11-07T05:33:56.982Z,905.94
2022-11-07T05:34:56.990Z,906.11
2022-11-07T05:35:56.990Z,905.3
2022-11-07T05:36:57.118Z,905.69
2022-11-07T05:37:56.990Z,904.7
2022-11-07T05:38:56.995Z,904.22
2022-11-07T05:39:56.993Z,903.61
2022-11-07T05:40:56.994Z,903.02
2022-11-07T05:41:57.000Z,902.83
2022-11-07T05:42:56.998Z,902.49
2022-11-07T05:43:57.001Z,902.42
2022-11-07T05:44:57.004Z,902.1
2022-11-07T05:45:57.003Z,901.85
2022-11-07T05:46:57.021Z,901.8
2022-11-07T05:47:57.011Z,901.28
2022-11-07T05:49:00.827Z,901.02
2022-11-07T05:49:57.010Z,900.52
2022-11-07T05:50:57.025Z,900.36
2022-11-07T05:51:57.029Z,899.98
2022-11-07T05:52:57.115Z,899.45
2022-11-07T05:53:57.013Z,899.16
2022-11-07T05:54:57.022Z,899.34
2022-11-07T05:55:57.016Z,898.91
2022-11-07T05:56:57.020Z,898.87
2022-11-07T05:57:57.024Z,898.49
2022-11-07T05:58:57.022Z,898.69
2022-11-07T05:59:57.023Z,898.49
2022-11-07T06:00:57.028Z,898.51
2022-11-07T06:01:57.140Z,898.64
2022-11-07T06:02:57.123Z,899.26
2022-11-07T06:03:57.029Z,899.87
2022-11-07T06:04:57.032Z,900.32
2022-11-07T06:05:57.033Z,899.97
2022-11-07T06:06:57.038Z,900.09
2022-11-07T06:07:57.085Z,900.58
2022-11-07T06:08:57.063Z,900.13
2022-11-07T06:09:57.039Z,900.28
2022-11-07T06:10:57.045Z,900.4
2022-11-07T06:11:57.051Z,900.21
2022-11-07T06:12:57.071Z,900.72
2022-11-07T06:13:57.139Z,900.87
2022-11-07T06:14:57.046Z,901.47
2022-11-07T06:15:57.051Z,901.55
2022-11-07T06:16:57.057Z,901.65
2022-11-07T06:17:57.087Z,902.34
2022-11-07T06:18:57.056Z,902.86
2022-11-07T06:19:57.059Z,902.98
2022-11-07T06:20:57.060Z,903.92
2022-11-07T06:21:57.120Z,903.88
2022-11-07T06:22:57.086Z,904.42
2022-11-07T06:23:57.060Z,905.03
2022-11-07T06:24:57.270Z,905.49
2022-11-07T06:25:57.066Z,905.94
2022-11-07T06:26:57.067Z,906.53
2022-11-07T06:27:57.101Z,907.17
2022-11-07T06:28:57.067Z,907.68
2022-11-07T06:29:57.069Z,907.88
2022-11-07T06:30:57.073Z,908.16
2022-11-07T06:31:57.075Z,908.47
2022-11-07T06:32:57.099Z,908.65
2022-11-07T06:33:57.078Z,909.21
2022-11-07T06:34:57.079Z,909.94
2022-11-07T06:35:57.083Z,910.5
2022-11-07T06:37:02.742Z,910.61
2022-11-07T06:37:57.112Z,911.17
2022-11-07T06:38:57.087Z,911.18
2022-11-07T06:39:57.087Z,911.39
2022-11-07T06:40:57.193Z,911.84
2022-11-07T06:41:57.155Z,911.92
2022-11-07T06:42:57.118Z,912.53
2022-11-07T06:43:57.095Z,913.2
2022-11-07T06:44:57.096Z,913.52
2022-11-07T06:45:57.093Z,914.14
2022-11-07T06:46:57.140Z,914.2
2022-11-07T06:47:57.124Z,914.72
2022-11-07T06:48:57.104Z,915.03
2022-11-07T06:49:57.103Z,915.49
2022-11-07T06:50:57.108Z,915.62
2022-11-07T06:51:57.105Z,916.33
2022-11-07T06:52:57.128Z,916.53
2022-11-07T06:53:57.115Z,916.94
2022-11-07T06:54:57.110Z,917.2
2022-11-07T06:55:57.117Z,917.8
2022-11-07T06:56:57.153Z,917.67
2022-11-07T06:57:57.137Z,917.88
2022-11-07T06:58:57.118Z,917.82
2022-11-07T06:59:57.157Z,918.15
2022-11-07T07:00:57.202Z,918.38
2022-11-07T07:01:57.145Z,918.17
2022-11-07T07:02:58.746Z,917.95
2022-11-07T07:03:57.123Z,917.6
2022-11-07T07:04:57.127Z,918.24
2022-11-07T07:05:57.129Z,917.82
2022-11-07T07:06:57.126Z,917.5
2022-11-07T07:07:57.162Z,917.95
2022-11-07T07:08:57.134Z,918.43
2022-11-07T07:09:57.133Z,918.56
2022-11-07T07:10:57.143Z,918.81
2022-11-07T07:11:57.140Z,918.84
2022-11-07T07:12:57.186Z,918.84
2022-11-07T07:14:01.890Z,918.95
2022-11-07T07:14:57.149Z,919.32
2022-11-07T07:15:57.143Z,919.63
2022-11-07T07:16:57.145Z,919.36
2022-11-07T07:17:57.168Z,919.34
2022-11-07T07:18:57.152Z,919.99
2022-11-07T07:19:57.147Z,921.05
2022-11-07T07:20:57.151Z,921.3
2022-11-07T07:21:57.153Z,922.01
2022-11-07T07:23:01.538Z,922.97
2022-11-07T07:23:57.161Z,922.59
2022-11-07T07:24:57.159Z,922.82
2022-11-07T07:26:00.180Z,922.28
2022-11-07T07:26:57.160Z,922.33
2022-11-07T07:27:57.220Z,922.53
2022-11-07T07:28:57.284Z,922.82
2022-11-07T07:29:57.171Z,923.09
2022-11-07T07:30:57.164Z,924.35
2022-11-07T07:31:57.169Z,929.52
2022-11-07T07:32:57.191Z,930.76
2022-11-07T07:33:57.169Z,934.55
2022-11-07T07:34:57.175Z,937.31
2022-11-07T07:35:57.175Z,938.36
2022-11-07T07:37:00.187Z,939.41
2022-11-07T07:37:57.197Z,940.25
2022-11-07T07:38:57.180Z,941.41
2022-11-07T07:39:57.211Z,941.89
2022-11-07T07:40:57.190Z,943.06
2022-11-07T07:41:57.198Z,943.9
2022-11-07T07:42:57.209Z,944.61
2022-11-07T07:43:57.189Z,946.29
2022-11-07T07:44:57.310Z,950.11
2022-11-07T07:45:57.189Z,957.86
2022-11-07T07:46:57.195Z,964.54
2022-11-07T07:47:58.749Z,971.26
2022-11-07T07:48:57.195Z,977.65
2022-11-07T07:49:57.197Z,984.1
2022-11-07T07:50:57.203Z,992.19
2022-11-07T07:51:57.215Z,998.47
2022-11-07T07:52:57.211Z,1004.68
2022-11-07T07:53:57.218Z,1012.11
2022-11-07T07:54:57.210Z,1016.68
2022-11-07T07:55:57.207Z,1019.99
2022-11-07T07:56:57.212Z,1019.47
2022-11-07T07:57:57.240Z,1018.47
2022-11-07T07:59:00.096Z,1017.83
2022-11-07T07:59:57.221Z,1017.66
2022-11-07T08:00:57.404Z,1017.46
2022-11-07T08:01:57.647Z,1019.7
2022-11-07T08:02:57.231Z,1020.91
2022-11-07T08:04:01.640Z,1020.4
2022-11-07T08:04:57.222Z,1019.09
2022-11-07T08:05:57.231Z,1018.1
2022-11-07T08:06:57.226Z,1017.2
2022-11-07T08:07:57.255Z,1016.35
2022-11-07T08:08:57.236Z,1017.54
2022-11-07T08:09:59.273Z,1020.4
2022-11-07T08:10:57.234Z,1023.93
2022-11-07T08:11:57.233Z,1026.9
2022-11-07T08:12:57.238Z,1028.95
2022-11-07T08:14:01.163Z,1030.93
2022-11-07T08:14:57.242Z,1032.26
2022-11-07T08:15:57.237Z,1033.71
2022-11-07T08:16:57.360Z,1034.49
2022-11-07T08:17:57.241Z,1035.49
2022-11-07T08:18:57.274Z,1036.27
2022-11-07T08:19:57.252Z,1037.26
2022-11-07T08:20:57.247Z,1038.47
2022-11-07T08:21:57.264Z,1039.5
2022-11-07T08:22:57.255Z,1039.96
2022-11-07T08:23:57.255Z,1040.33
2022-11-07T08:24:57.258Z,1041.06
2022-11-07T08:25:57.288Z,1041.57
2022-11-07T08:26:57.259Z,1041.99
2022-11-07T08:27:57.257Z,1042.36
2022-11-07T08:28:57.261Z,1042.9
2022-11-07T08:29:57.415Z,1043.61
2022-11-07T08:30:57.264Z,1044.26
2022-11-07T08:31:57.268Z,1044.68
2022-11-07T08:32:57.304Z,1045.5
2022-11-07T08:33:57.393Z,1046.09
2022-11-07T08:34:57.279Z,1046.94
2022-11-07T08:35:57.307Z,1047.13
2022-11-07T08:36:57.276Z,1047.7
2022-11-07T08:37:57.276Z,1047.98
2022-11-07T08:38:57.277Z,1048.41
2022-11-07T08:39:57.282Z,1049.07
2022-11-07T08:40:57.283Z,1049.3
2022-11-07T08:42:00.404Z,1050.39
2022-11-07T08:42:57.288Z,1051.37
2022-11-07T08:43:57.290Z,1051.78
2022-11-07T08:44:57.349Z,1052.75
2022-11-07T08:45:57.293Z,1052.97
2022-11-07T08:46:57.291Z,1053.25
2022-11-07T08:47:57.292Z,1053.39
2022-11-07T08:48:57.388Z,1053.41
2022-11-07T08:49:57.297Z,1053.19
2022-11-07T08:50:57.297Z,1052.98
2022-11-07T08:51:57.298Z,1052.99
2022-11-07T08:53:02.372Z,1053.38
2022-11-07T08:53:57.311Z,1053.86
2022-11-07T08:54:57.303Z,1053.88
2022-11-07T08:55:57.313Z,1053.73
2022-11-07T08:56:57.308Z,1053.96
2022-11-07T08:57:57.314Z,1054.66
2022-11-07T08:58:57.337Z,1055.97
2022-11-07T08:59:57.314Z,1056.4
2022-11-07T09:00:57.432Z,1056.9
2022-11-07T09:02:28.266Z,1057.54
2022-11-07T09:04:05.147Z,1059.41
2022-11-07T09:05:04.922Z,1060.13
2022-11-07T09:06:04.930Z,1061.12
2022-11-07T09:07:04.923Z,1062.17
2022-11-07T09:08:04.927Z,1063.26
2022-11-07T09:09:04.951Z,1064.55
2022-11-07T09:10:07.768Z,1065.46
2022-11-07T09:11:04.929Z,1066.36
2022-11-07T09:12:04.932Z,1067.19
2022-11-07T09:13:04.938Z,1067.76
2022-11-07T09:14:04.969Z,1068.86
2022-11-07T09:15:04.939Z,1069.62
2022-11-07T09:16:04.946Z,1069.99
2022-11-07T09:17:04.939Z,1070.66
2022-11-07T09:18:04.945Z,1071.45
2022-11-07T09:19:04.967Z,1072.31
2022-11-07T09:20:04.974Z,1072.79
2022-11-07T09:21:07.959Z,1074.14
2022-11-07T09:22:04.964Z,1074.97
2022-11-07T09:23:04.956Z,1075.96
2022-11-07T09:24:04.978Z,1076.61
2022-11-07T09:25:04.954Z,1077.5
2022-11-07T09:26:04.963Z,1078.13
2022-11-07T09:27:04.961Z,1079.11
2022-11-07T09:28:04.960Z,1080.87
2022-11-07T09:29:04.986Z,1082.08
2022-11-07T09:30:05.030Z,1083.15
2022-11-07T09:31:04.963Z,1083.51
2022-11-07T09:32:17.432Z,1083.94
2022-11-07T09:33:04.966Z,1084.86
2022-11-07T09:34:04.993Z,1085.39
2022-11-07T09:35:05.347Z,1086.14
2022-11-07T09:36:05.000Z,1086.23
2022-11-07T09:37:04.975Z,1086.62
2022-11-07T09:38:04.975Z,1086.88
2022-11-07T09:39:05.000Z,1086.71
2022-11-07T09:40:04.982Z,1087.02
2022-11-07T09:41:04.978Z,1087.53
2022-11-07T09:42:04.982Z,1088.1
2022-11-07T09:43:04.988Z,1088.82
2022-11-07T09:44:05.155Z,1089.29
2022-11-07T09:45:04.990Z,1089.95
2022-11-07T09:46:04.988Z,1090.01
2022-11-07T09:47:04.993Z,1090.16
2022-11-07T09:48:04.997Z,1090.38
2022-11-07T09:49:05.020Z,1090.39
2022-11-07T09:50:04.997Z,1090.42
2022-11-07T09:51:05.039Z,1091.11
2022-11-07T09:52:05.021Z,1091.78
2022-11-07T09:53:05.000Z,1092.83
2022-11-07T09:54:05.029Z,1093.58
2022-11-07T09:55:05.005Z,1094.62
2022-11-07T09:56:05.013Z,1095.22
2022-11-07T09:57:05.012Z,1095.65
2022-11-07T09:58:05.017Z,1096.51
2022-11-07T09:59:07.455Z,1097.32
2022-11-07T10:00:05.014Z,1098.43
2022-11-07T10:01:05.054Z,1099.51
2022-11-07T10:02:05.080Z,1100.3
2022-11-07T10:03:05.193Z,1101.23
2022-11-07T10:04:23.980Z,1101.85
2022-11-07T10:05:05.024Z,1101.95
2022-11-07T10:06:05.028Z,1102.37
2022-11-07T10:07:05.023Z,1102.79
2022-11-07T10:08:05.052Z,1103.05
2022-11-07T10:09:05.060Z,1103.31
2022-11-07T10:10:05.036Z,1104.31
2022-11-07T10:11:05.034Z,1105.24
2022-11-07T10:12:05.033Z,1106.33
2022-11-07T10:13:05.036Z,1107.31
2022-11-07T10:14:05.069Z,1108.22
2022-11-07T10:15:05.038Z,1108.49
2022-11-07T10:16:05.039Z,1108.53
2022-11-07T10:17:05.044Z,1108.47
2022-11-07T10:18:05.045Z,1108.9
2022-11-07T10:19:05.067Z,1109.47
2022-11-07T10:20:05.049Z,1110.17
2022-11-07T10:21:35.567Z,1110.86
2022-11-07T10:22:05.052Z,1111.5
2022-11-07T10:23:05.068Z,1111.95
2022-11-07T10:24:05.104Z,1112.43
2022-11-07T10:25:05.058Z,1113.03
2022-11-07T10:26:05.067Z,1113.4
2022-11-07T10:27:05.066Z,1113.71
2022-11-07T10:28:05.075Z,1114.02
2022-11-07T10:29:05.088Z,1114.36
2022-11-07T10:30:05.066Z,1114
2022-11-07T10:31:05.069Z,1113.91
2022-11-07T10:32:05.071Z,1113.78
2022-11-07T10:33:05.073Z,1113.42
2022-11-07T10:34:05.094Z,1112.92
2022-11-07T10:35:05.071Z,1112.03
2022-11-07T10:36:05.075Z,1111.78
2022-11-07T10:37:05.080Z,1112.1
2022-11-07T10:38:05.080Z,1111.86
2022-11-07T10:39:05.101Z,1111.26
2022-11-07T10:40:08.353Z,1110.75
2022-11-07T10:41:05.085Z,1110.51
2022-11-07T10:42:05.085Z,1110.32
2022-11-07T10:43:06.301Z,1110.19
2022-11-07T10:44:05.116Z,1110.12
2022-11-07T10:45:05.090Z,1110.2
2022-11-07T10:46:05.101Z,1110.93
2022-11-07T10:47:05.135Z,1112.16
2022-11-07T10:48:05.096Z,1113.05
2022-11-07T10:49:05.130Z,1113.93
2022-11-07T10:50:05.105Z,1114.76
2022-11-07T10:51:05.103Z,1115.44
2022-11-07T10:52:05.111Z,1116.4
2022-11-07T10:53:05.105Z,1117.14
2022-11-07T10:54:05.139Z,1117.47
2022-11-07T10:55:05.116Z,1117.56
2022-11-07T10:56:05.134Z,1117.61
2022-11-07T10:57:05.107Z,1117.5
2022-11-07T10:58:05.111Z,1117.69
2022-11-07T10:59:05.141Z,1117.9
2022-11-07T11:00:05.122Z,1118.16
2022-11-07T11:01:05.192Z,1118.38
2022-11-07T11:02:05.177Z,1118.49
2022-11-07T11:03:05.128Z,1118.81
2022-11-07T11:04:05.204Z,1119.1
2022-11-07T11:05:05.180Z,1119.48
2022-11-07T11:06:05.132Z,1119.97
2022-11-07T11:07:05.135Z,1120.43
2022-11-07T11:08:05.140Z,1120.7
2022-11-07T11:09:05.158Z,1120.88
2022-11-07T11:10:05.132Z,1120.32
2022-11-07T11:11:05.135Z,1120.06
2022-11-07T11:12:05.170Z,1119.85
2022-11-07T11:13:05.136Z,1119.78
2022-11-07T11:14:05.167Z,1119.65
2022-11-07T11:15:08.196Z,1119.26
2022-11-07T11:16:05.882Z,1118.68
2022-11-07T11:17:05.164Z,1118.2
2022-11-07T11:18:05.155Z,1117.98
2022-11-07T11:19:05.175Z,1117.85
2022-11-07T11:20:05.154Z,1117.67
2022-11-07T11:21:05.158Z,1117.49
2022-11-07T11:22:09.496Z,1117.11
2022-11-07T11:23:05.161Z,1116.68
2022-11-07T11:24:05.190Z,1116.37
2022-11-07T11:25:05.164Z,1116.29
2022-11-07T11:26:06.284Z,1116.35
2022-11-07T11:27:05.167Z,1116.4
2022-11-07T11:28:05.197Z,1116.32
2022-11-07T11:29:05.193Z,1116.45
2022-11-07T11:30:05.172Z,1116.43
2022-11-07T11:31:05.179Z,1116.66
2022-11-07T11:32:05.171Z,1116.79
2022-11-07T11:33:05.180Z,1116.77
2022-11-07T11:34:05.198Z,1116.8
2022-11-07T11:35:05.178Z,1116.95
2022-11-07T11:36:05.179Z,1117.26
2022-11-07T11:37:08.051Z,1117.53
2022-11-07T11:38:05.185Z,1117.79
2022-11-07T11:39:05.204Z,1118.09
2022-11-07T11:40:05.186Z,1118.35
2022-11-07T11:41:10.500Z,1118.48
2022-11-07T11:42:05.194Z,1118.62
2022-11-07T11:43:05.190Z,1118.73
2022-11-07T11:44:05.243Z,1118.82
2022-11-07T11:45:05.276Z,1119.11
2022-11-07T11:46:05.197Z,1119.33
2022-11-07T11:47:05.197Z,1119.72
2022-11-07T11:48:08.297Z,1120.19
2022-11-07T11:49:05.221Z,1120.4
2022-11-07T11:50:05.202Z,1120.5
2022-11-07T11:51:05.205Z,1120.3
2022-11-07T11:52:05.207Z,1120.07
2022-11-07T11:53:05.211Z,1120.35
2022-11-07T11:54:05.250Z,1120.72
2022-11-07T11:55:05.296Z,1120.99
2022-11-07T11:56:05.211Z,1121.18
2022-11-07T11:57:05.215Z,1121.27
2022-11-07T11:58:05.218Z,1121.26
2022-11-07T11:59:08.964Z,1121.26
2022-11-07T12:00:05.224Z,1121.33
2022-11-07T12:01:05.225Z,1121.32
2022-11-07T12:02:05.297Z,1121.17
2022-11-07T12:03:05.233Z,1120.89
2022-11-07T12:04:06.986Z,1120.61
2022-11-07T12:05:05.229Z,1120.25
2022-11-07T12:06:05.242Z,1119.74
2022-11-07T12:07:05.235Z,1119.58
2022-11-07T12:08:05.240Z,1119.19
2022-11-07T12:09:05.232Z,1119.03
2022-11-07T12:10:05.239Z,1118.63
2022-11-07T12:11:05.237Z,1118.6
2022-11-07T12:12:05.242Z,1118.72
2022-11-07T12:13:05.243Z,1118.71
2022-11-07T12:14:05.255Z,1118.68
2022-11-07T12:15:05.341Z,1118.62
2022-11-07T12:16:05.252Z,1118.95
2022-11-07T12:17:05.250Z,1119.54
2022-11-07T12:18:05.253Z,1119.88
2022-11-07T12:19:05.258Z,1120.45
2022-11-07T12:20:05.278Z,1120.8
2022-11-07T12:21:05.259Z,1121.04
2022-11-07T12:22:05.255Z,1121.16
2022-11-07T12:23:05.263Z,1121.56
2022-11-07T12:24:05.271Z,1121.88